sensor_id;sensor_type;location;lat;lon;timestamp;temperature;humidity
12303;DHT22;6214;48.012;7.862;2022-11-15T00:00:50;14.20;99.90
12303;DHT22;6214;48.012;7.862;2022-11-15T00:03:19;14.20;99.90
12303;DHT22;6214;48.012;7.862;2022-11-15T00:05:47;14.20;99.90
12303;DHT22;6214;48.012;7.862;2022-11-15T00:08:14;14.20;99.90
12303;DHT22;6214;48.012;7.862;2022-11-15T00:10:41;14.20;99.90
12303;DHT22;6214;48.012;7.862;2022-11-15T00:13:12;14.30;99.90
12303;DHT22;6214;48.012;7.862;2022-11-15T00:15:40;14.40;99.90
12303;DHT22;6214;48.012;7.862;2022-11-15T00:18:12;14.40;99.90
12303;DHT22;6214;48.012;7.862;2022-11-15T00:20:40;14.60;99.90
12303;DHT22;6214;48.012;7.862;2022-11-15T00:23:07;14.70;99.90
12303;DHT22;6214;48.012;7.862;2022-11-15T00:25:33;14.80;99.90
12303;DHT22;6214;48.012;7.862;2022-11-15T00:28:01;14.70;99.90
12303;DHT22;6214;48.012;7.862;2022-11-15T00:30:28;14.70;99.90
12303;DHT22;6214;48.012;7.862;2022-11-15T00:32:55;14.60;99.90
12303;DHT22;6214;48.012;7.862;2022-11-15T00:35:22;14.50;99.90
12303;DHT22;6214;48.012;7.862;2022-11-15T00:37:49;14.40;99.90
12303;DHT22;6214;48.012;7.862;2022-11-15T00:40:16;14.40;99.90
12303;DHT22;6214;48.012;7.862;2022-11-15T00:42:42;14.20;99.90
12303;DHT22;6214;48.012;7.862;2022-11-15T00:45:09;14.10;99.90
12303;DHT22;6214;48.012;7.862;2022-11-15T00:47:36;14.10;99.90
12303;DHT22;6214;48.012;7.862;2022-11-15T00:50:04;14.10;99.90
12303;DHT22;6214;48.012;7.862;2022-11-15T00:52:30;14.00;99.90
12303;DHT22;6214;48.012;7.862;2022-11-15T00:54:57;13.80;99.90
12303;DHT22;6214;48.012;7.862;2022-11-15T00:57:24;13.90;99.90
12303;DHT22;6214;48.012;7.862;2022-11-15T00:59:51;13.70;99.90
12303;DHT22;6214;48.012;7.862;2022-11-15T01:02:18;13.70;99.90
12303;DHT22;6214;48.012;7.862;2022-11-15T01:04:45;13.70;99.90
12303;DHT22;6214;48.012;7.862;2022-11-15T01:07:11;13.70;99.90
12303;DHT22;6214;48.012;7.862;2022-11-15T01:09:38;13.60;99.90
12303;DHT22;6214;48.012;7.862;2022-11-15T01:12:05;13.60;99.90
12303;DHT22;6214;48.012;7.862;2022-11-15T01:14:32;13.60;99.90
12303;DHT22;6214;48.012;7.862;2022-11-15T01:16:58;13.60;99.90
12303;DHT22;6214;48.012;7.862;2022-11-15T01:19:25;13.70;99.90
12303;DHT22;6214;48.012;7.862;2022-11-15T01:21:52;13.70;99.90
12303;DHT22;6214;48.012;7.862;2022-11-15T01:24:19;13.70;99.90
12303;DHT22;6214;48.012;7.862;2022-11-15T01:26:46;13.80;99.90
12303;DHT22;6214;48.012;7.862;2022-11-15T01:29:12;13.70;99.90
12303;DHT22;6214;48.012;7.862;2022-11-15T01:31:39;13.80;99.90
12303;DHT22;6214;48.012;7.862;2022-11-15T01:34:06;13.80;99.90
12303;DHT22;6214;48.012;7.862;2022-11-15T01:36:32;14.00;99.90
12303;DHT22;6214;48.012;7.862;2022-11-15T01:38:59;14.30;99.90
12303;DHT22;6214;48.012;7.862;2022-11-15T01:41:31;14.70;99.90
12303;DHT22;6214;48.012;7.862;2022-11-15T01:47:06;15.20;99.90
12303;DHT22;6214;48.012;7.862;2022-11-15T01:49:35;15.40;99.90
12303;DHT22;6214;48.012;7.862;2022-11-15T01:52:07;15.60;99.90
12303;DHT22;6214;48.012;7.862;2022-11-15T01:54:35;15.70;99.90
12303;DHT22;6214;48.012;7.862;2022-11-15T01:57:06;15.70;99.90
12303;DHT22;6214;48.012;7.862;2022-11-15T01:59:34;15.80;99.90
12303;DHT22;6214;48.012;7.862;2022-11-15T02:02:01;15.70;99.90
12303;DHT22;6214;48.012;7.862;2022-11-15T02:04:31;15.70;99.90
12303;DHT22;6214;48.012;7.862;2022-11-15T02:06:59;15.70;99.90
12303;DHT22;6214;48.012;7.862;2022-11-15T02:09:29;15.70;99.90
12303;DHT22;6214;48.012;7.862;2022-11-15T02:11:56;15.70;99.90
12303;DHT22;6214;48.012;7.862;2022-11-15T02:14:25;15.70;99.90
12303;DHT22;6214;48.012;7.862;2022-11-15T02:33:53;15.70;99.90
12303;DHT22;6214;48.012;7.862;2022-11-15T02:36:39;15.70;99.90
12303;DHT22;6214;48.012;7.862;2022-11-15T02:39:35;15.70;99.90
12303;DHT22;6214;48.012;7.862;2022-11-15T02:42:13;15.70;99.90
12303;DHT22;6214;48.012;7.862;2022-11-15T02:45:04;15.80;99.90
12303;DHT22;6214;48.012;7.862;2022-11-15T02:47:41;15.90;99.90
12303;DHT22;6214;48.012;7.862;2022-11-15T02:50:12;16.00;99.90
12303;DHT22;6214;48.012;7.862;2022-11-15T02:52:39;15.90;99.90
12303;DHT22;6214;48.012;7.862;2022-11-15T02:55:30;15.90;99.90
12303;DHT22;6214;48.012;7.862;2022-11-15T03:00:39;15.80;99.90
12303;DHT22;6214;48.012;7.862;2022-11-15T03:09:28;15.50;99.90
12303;DHT22;6214;48.012;7.862;2022-11-15T03:12:03;15.40;99.90
12303;DHT22;6214;48.012;7.862;2022-11-15T03:14:40;15.30;99.90
12303;DHT22;6214;48.012;7.862;2022-11-15T03:17:23;15.40;99.90
12303;DHT22;6214;48.012;7.862;2022-11-15T03:19:57;15.30;99.90
12303;DHT22;6214;48.012;7.862;2022-11-15T03:22:29;15.40;99.90
12303;DHT22;6214;48.012;7.862;2022-11-15T03:24:59;15.30;99.90
12303;DHT22;6214;48.012;7.862;2022-11-15T03:27:31;15.30;99.90
12303;DHT22;6214;48.012;7.862;2022-11-15T03:30:03;15.20;99.90
12303;DHT22;6214;48.012;7.862;2022-11-15T03:32:53;15.10;99.90
12303;DHT22;6214;48.012;7.862;2022-11-15T03:35:25;15.10;99.90
12303;DHT22;6214;48.012;7.862;2022-11-15T03:38:06;15.20;99.90
12303;DHT22;6214;48.012;7.862;2022-11-15T03:40:43;14.90;99.90
12303;DHT22;6214;48.012;7.862;2022-11-15T03:46:22;14.60;99.90
12303;DHT22;6214;48.012;7.862;2022-11-15T03:48:54;14.70;99.90
12303;DHT22;6214;48.012;7.862;2022-11-15T03:51:25;14.60;99.90
12303;DHT22;6214;48.012;7.862;2022-11-15T03:53:52;14.40;99.90
12303;DHT22;6214;48.012;7.862;2022-11-15T03:56:19;14.50;99.90
12303;DHT22;6214;48.012;7.862;2022-11-15T03:58:45;14.50;99.90
12303;DHT22;6214;48.012;7.862;2022-11-15T04:01:12;14.30;99.90
12303;DHT22;6214;48.012;7.862;2022-11-15T04:03:39;14.30;99.90
12303;DHT22;6214;48.012;7.862;2022-11-15T04:06:06;14.20;99.90
12303;DHT22;6214;48.012;7.862;2022-11-15T04:08:33;14.10;99.90
12303;DHT22;6214;48.012;7.862;2022-11-15T04:10:59;14.20;99.90
12303;DHT22;6214;48.012;7.862;2022-11-15T04:13:28;14.10;99.90
12303;DHT22;6214;48.012;7.862;2022-11-15T04:15:55;14.00;99.90
12303;DHT22;6214;48.012;7.862;2022-11-15T04:18:22;14.20;99.90
12303;DHT22;6214;48.012;7.862;2022-11-15T04:20:49;14.20;99.90
12303;DHT22;6214;48.012;7.862;2022-11-15T04:23:34;14.10;99.90
12303;DHT22;6214;48.012;7.862;2022-11-15T04:26:21;13.90;99.90
12303;DHT22;6214;48.012;7.862;2022-11-15T04:28:48;13.90;99.90
12303;DHT22;6214;48.012;7.862;2022-11-15T04:31:34;14.00;99.90
12303;DHT22;6214;48.012;7.862;2022-11-15T04:34:00;14.00;99.90
12303;DHT22;6214;48.012;7.862;2022-11-15T04:36:27;14.20;99.90
12303;DHT22;6214;48.012;7.862;2022-11-15T04:39:13;14.10;99.90
12303;DHT22;6214;48.012;7.862;2022-11-15T04:41:40;14.10;99.90
12303;DHT22;6214;48.012;7.862;2022-11-15T04:44:06;14.00;99.90
12303;DHT22;6214;48.012;7.862;2022-11-15T04:46:33;14.00;99.90
12303;DHT22;6214;48.012;7.862;2022-11-15T04:49:00;13.90;99.90
12303;DHT22;6214;48.012;7.862;2022-11-15T04:51:27;14.00;99.90
12303;DHT22;6214;48.012;7.862;2022-11-15T04:53:53;13.90;99.90
12303;DHT22;6214;48.012;7.862;2022-11-15T04:56:20;13.80;99.90
12303;DHT22;6214;48.012;7.862;2022-11-15T04:58:50;13.80;99.90
12303;DHT22;6214;48.012;7.862;2022-11-15T05:01:17;13.90;99.90
12303;DHT22;6214;48.012;7.862;2022-11-15T05:03:44;13.80;99.90
12303;DHT22;6214;48.012;7.862;2022-11-15T05:06:29;13.70;99.90
12303;DHT22;6214;48.012;7.862;2022-11-15T05:08:57;13.50;99.90
12303;DHT22;6214;48.012;7.862;2022-11-15T05:11:24;13.50;99.90
12303;DHT22;6214;48.012;7.862;2022-11-15T05:13:51;13.60;99.90
12303;DHT22;6214;48.012;7.862;2022-11-15T05:16:18;13.60;99.90
12303;DHT22;6214;48.012;7.862;2022-11-15T05:18:44;13.70;99.90
12303;DHT22;6214;48.012;7.862;2022-11-15T05:21:13;13.70;99.90
12303;DHT22;6214;48.012;7.862;2022-11-15T05:23:41;13.60;99.90
12303;DHT22;6214;48.012;7.862;2022-11-15T05:26:09;13.70;99.90
12303;DHT22;6214;48.012;7.862;2022-11-15T05:28:36;13.70;99.90
12303;DHT22;6214;48.012;7.862;2022-11-15T05:31:09;13.60;99.90
12303;DHT22;6214;48.012;7.862;2022-11-15T05:33:37;13.60;99.90
12303;DHT22;6214;48.012;7.862;2022-11-15T05:39:01;13.50;99.90
12303;DHT22;6214;48.012;7.862;2022-11-15T05:44:06;13.40;99.90
12303;DHT22;6214;48.012;7.862;2022-11-15T05:46:34;13.50;99.90
12303;DHT22;6214;48.012;7.862;2022-11-15T05:49:05;13.40;99.90
12303;DHT22;6214;48.012;7.862;2022-11-15T05:51:33;13.50;99.90
12303;DHT22;6214;48.012;7.862;2022-11-15T05:54:00;13.40;99.90
12303;DHT22;6214;48.012;7.862;2022-11-15T05:56:28;13.30;99.90
12303;DHT22;6214;48.012;7.862;2022-11-15T05:58:57;13.40;99.90
12303;DHT22;6214;48.012;7.862;2022-11-15T06:01:26;13.40;99.90
12303;DHT22;6214;48.012;7.862;2022-11-15T06:03:54;13.40;99.90
12303;DHT22;6214;48.012;7.862;2022-11-15T06:06:21;13.40;99.90
12303;DHT22;6214;48.012;7.862;2022-11-15T06:08:48;13.30;99.90
12303;DHT22;6214;48.012;7.862;2022-11-15T06:11:14;13.20;99.90
12303;DHT22;6214;48.012;7.862;2022-11-15T06:13:41;13.20;99.90
12303;DHT22;6214;48.012;7.862;2022-11-15T06:16:08;13.10;99.90
12303;DHT22;6214;48.012;7.862;2022-11-15T06:18:35;13.10;99.90
12303;DHT22;6214;48.012;7.862;2022-11-15T06:21:05;13.10;99.90
12303;DHT22;6214;48.012;7.862;2022-11-15T06:23:33;12.90;99.90
12303;DHT22;6214;48.012;7.862;2022-11-15T06:26:02;12.90;99.90
12303;DHT22;6214;48.012;7.862;2022-11-15T06:28:31;12.90;99.90
12303;DHT22;6214;48.012;7.862;2022-11-15T06:31:06;13.00;99.90
12303;DHT22;6214;48.012;7.862;2022-11-15T06:33:33;13.10;99.90
12303;DHT22;6214;48.012;7.862;2022-11-15T06:36:06;13.20;99.90
12303;DHT22;6214;48.012;7.862;2022-11-15T06:38:37;13.20;99.90
12303;DHT22;6214;48.012;7.862;2022-11-15T06:41:06;13.80;99.90
12303;DHT22;6214;48.012;7.862;2022-11-15T06:43:33;13.20;99.90
12303;DHT22;6214;48.012;7.862;2022-11-15T06:46:02;13.20;99.90
12303;DHT22;6214;48.012;7.862;2022-11-15T06:48:29;13.30;99.90
12303;DHT22;6214;48.012;7.862;2022-11-15T06:51:00;13.30;99.90
12303;DHT22;6214;48.012;7.862;2022-11-15T06:53:28;13.30;99.90
12303;DHT22;6214;48.012;7.862;2022-11-15T06:56:04;13.40;99.90
12303;DHT22;6214;48.012;7.862;2022-11-15T06:58:32;13.40;99.90
12303;DHT22;6214;48.012;7.862;2022-11-15T07:01:00;13.20;99.90
12303;DHT22;6214;48.012;7.862;2022-11-15T07:03:27;13.30;99.90
12303;DHT22;6214;48.012;7.862;2022-11-15T07:05:56;13.40;99.90
12303;DHT22;6214;48.012;7.862;2022-11-15T07:08:31;13.40;99.90
12303;DHT22;6214;48.012;7.862;2022-11-15T07:10:59;13.20;99.90
12303;DHT22;6214;48.012;7.862;2022-11-15T07:13:28;13.20;99.90
12303;DHT22;6214;48.012;7.862;2022-11-15T07:15:55;13.30;99.90
12303;DHT22;6214;48.012;7.862;2022-11-15T07:18:22;13.40;99.90
12303;DHT22;6214;48.012;7.862;2022-11-15T07:20:49;13.20;99.90
12303;DHT22;6214;48.012;7.862;2022-11-15T07:23:16;13.20;99.90
12303;DHT22;6214;48.012;7.862;2022-11-15T07:25:42;13.40;99.90
12303;DHT22;6214;48.012;7.862;2022-11-15T07:28:09;13.50;99.90
12303;DHT22;6214;48.012;7.862;2022-11-15T07:30:36;13.40;99.90
12303;DHT22;6214;48.012;7.862;2022-11-15T07:33:10;13.50;99.90
12303;DHT22;6214;48.012;7.862;2022-11-15T07:35:37;13.60;99.90
12303;DHT22;6214;48.012;7.862;2022-11-15T07:38:04;13.70;99.90
12303;DHT22;6214;48.012;7.862;2022-11-15T07:40:31;13.60;99.90
12303;DHT22;6214;48.012;7.862;2022-11-15T07:43:06;13.60;99.90
12303;DHT22;6214;48.012;7.862;2022-11-15T07:45:33;13.60;99.90
12303;DHT22;6214;48.012;7.862;2022-11-15T07:48:00;13.60;99.90
12303;DHT22;6214;48.012;7.862;2022-11-15T07:50:27;13.70;99.90
12303;DHT22;6214;48.012;7.862;2022-11-15T07:52:59;13.90;99.90
12303;DHT22;6214;48.012;7.862;2022-11-15T07:55:27;13.90;99.90
12303;DHT22;6214;48.012;7.862;2022-11-15T07:58:05;14.00;99.90
12303;DHT22;6214;48.012;7.862;2022-11-15T08:00:33;14.00;99.90
12303;DHT22;6214;48.012;7.862;2022-11-15T08:03:08;14.00;99.90
12303;DHT22;6214;48.012;7.862;2022-11-15T08:05:36;14.10;99.90
12303;DHT22;6214;48.012;7.862;2022-11-15T08:08:04;14.10;99.90
12303;DHT22;6214;48.012;7.862;2022-11-15T08:10:31;14.20;99.90
12303;DHT22;6214;48.012;7.862;2022-11-15T08:13:09;14.30;99.90
12303;DHT22;6214;48.012;7.862;2022-11-15T08:15:36;14.40;99.90
12303;DHT22;6214;48.012;7.862;2022-11-15T08:18:06;14.40;99.90
12303;DHT22;6214;48.012;7.862;2022-11-15T08:20:33;14.40;99.90
12303;DHT22;6214;48.012;7.862;2022-11-15T08:23:02;14.40;99.90
12303;DHT22;6214;48.012;7.862;2022-11-15T08:25:31;14.40;99.90
12303;DHT22;6214;48.012;7.862;2022-11-15T08:28:00;14.40;99.90
12303;DHT22;6214;48.012;7.862;2022-11-15T08:30:28;14.50;99.90
12303;DHT22;6214;48.012;7.862;2022-11-15T08:32:57;14.60;99.90
12303;DHT22;6214;48.012;7.862;2022-11-15T08:35:24;14.80;99.90
12303;DHT22;6214;48.012;7.862;2022-11-15T08:37:55;14.70;99.90
12303;DHT22;6214;48.012;7.862;2022-11-15T08:40:22;14.90;99.90
12303;DHT22;6214;48.012;7.862;2022-11-15T08:42:49;14.80;99.90
12303;DHT22;6214;48.012;7.862;2022-11-15T08:45:16;14.70;99.90
12303;DHT22;6214;48.012;7.862;2022-11-15T08:47:44;14.70;99.90
12303;DHT22;6214;48.012;7.862;2022-11-15T08:50:18;14.80;99.90
12303;DHT22;6214;48.012;7.862;2022-11-15T08:52:45;15.00;99.90
12303;DHT22;6214;48.012;7.862;2022-11-15T08:55:12;14.90;99.90
12303;DHT22;6214;48.012;7.862;2022-11-15T08:57:39;15.00;99.90
12303;DHT22;6214;48.012;7.862;2022-11-15T09:00:06;14.90;99.90
12303;DHT22;6214;48.012;7.862;2022-11-15T09:02:33;14.60;99.90
12303;DHT22;6214;48.012;7.862;2022-11-15T09:04:59;14.50;99.90
12303;DHT22;6214;48.012;7.862;2022-11-15T09:07:26;14.50;99.90
12303;DHT22;6214;48.012;7.862;2022-11-15T09:09:56;14.70;99.90
12303;DHT22;6214;48.012;7.862;2022-11-15T09:12:23;14.60;99.90
12303;DHT22;6214;48.012;7.862;2022-11-15T09:14:50;14.70;99.90
12303;DHT22;6214;48.012;7.862;2022-11-15T09:17:17;14.70;99.90
12303;DHT22;6214;48.012;7.862;2022-11-15T09:19:50;14.80;99.90
12303;DHT22;6214;48.012;7.862;2022-11-15T09:22:16;14.80;99.90
12303;DHT22;6214;48.012;7.862;2022-11-15T09:24:43;14.80;99.90
12303;DHT22;6214;48.012;7.862;2022-11-15T09:27:10;14.90;99.90
12303;DHT22;6214;48.012;7.862;2022-11-15T09:29:37;15.00;99.90
12303;DHT22;6214;48.012;7.862;2022-11-15T09:32:04;14.90;99.90
12303;DHT22;6214;48.012;7.862;2022-11-15T09:34:30;14.90;99.90
12303;DHT22;6214;48.012;7.862;2022-11-15T09:36:57;14.90;99.90
12303;DHT22;6214;48.012;7.862;2022-11-15T09:39:24;15.00;99.90
12303;DHT22;6214;48.012;7.862;2022-11-15T09:47:33;15.10;99.90
12303;DHT22;6214;48.012;7.862;2022-11-15T09:50:11;15.10;99.90
12303;DHT22;6214;48.012;7.862;2022-11-15T09:52:42;15.20;99.90
12303;DHT22;6214;48.012;7.862;2022-11-15T09:55:14;15.40;99.90
12303;DHT22;6214;48.012;7.862;2022-11-15T09:58:07;15.30;99.90
12303;DHT22;6214;48.012;7.862;2022-11-15T10:00:41;15.20;99.90
12303;DHT22;6214;48.012;7.862;2022-11-15T10:03:16;15.20;99.90
12303;DHT22;6214;48.012;7.862;2022-11-15T10:05:46;15.10;99.90
12303;DHT22;6214;48.012;7.862;2022-11-15T10:11:26;15.40;99.90
12303;DHT22;6214;48.012;7.862;2022-11-15T10:14:22;15.50;99.90
12303;DHT22;6214;48.012;7.862;2022-11-15T10:22:25;15.90;99.90
12303;DHT22;6214;48.012;7.862;2022-11-15T10:25:23;15.80;99.90
12303;DHT22;6214;48.012;7.862;2022-11-15T10:27:56;15.90;99.90
12303;DHT22;6214;48.012;7.862;2022-11-15T10:30:30;15.90;99.90
12303;DHT22;6214;48.012;7.862;2022-11-15T10:32:57;16.00;99.90
12303;DHT22;6214;48.012;7.862;2022-11-15T10:35:28;16.00;99.90
12303;DHT22;6214;48.012;7.862;2022-11-15T10:38:10;15.90;99.90
12303;DHT22;6214;48.012;7.862;2022-11-15T10:40:39;15.90;99.90
12303;DHT22;6214;48.012;7.862;2022-11-15T10:45:36;15.80;99.90
12303;DHT22;6214;48.012;7.862;2022-11-15T10:50:41;15.90;99.90
12303;DHT22;6214;48.012;7.862;2022-11-15T10:55:54;16.00;99.90
12303;DHT22;6214;48.012;7.862;2022-11-15T11:00:56;16.10;99.90
12303;DHT22;6214;48.012;7.862;2022-11-15T11:03:35;16.10;99.90
12303;DHT22;6214;48.012;7.862;2022-11-15T11:08:36;16.20;99.90
12303;DHT22;6214;48.012;7.862;2022-11-15T11:11:04;16.10;99.90
12303;DHT22;6214;48.012;7.862;2022-11-15T11:13:33;16.20;99.90
12303;DHT22;6214;48.012;7.862;2022-11-15T11:18:38;16.20;99.90
12303;DHT22;6214;48.012;7.862;2022-11-15T11:21:15;16.20;99.90
12303;DHT22;6214;48.012;7.862;2022-11-15T11:24:19;16.30;99.90
12303;DHT22;6214;48.012;7.862;2022-11-15T11:27:07;16.30;99.90
12303;DHT22;6214;48.012;7.862;2022-11-15T11:29:48;16.30;99.90
12303;DHT22;6214;48.012;7.862;2022-11-15T11:40:40;16.40;99.90
12303;DHT22;6214;48.012;7.862;2022-11-15T11:43:48;16.40;99.90
12303;DHT22;6214;48.012;7.862;2022-11-15T11:49:09;16.60;99.90
12303;DHT22;6214;48.012;7.862;2022-11-15T11:51:43;16.80;99.90
12303;DHT22;6214;48.012;7.862;2022-11-15T11:54:17;16.80;99.90
12303;DHT22;6214;48.012;7.862;2022-11-15T11:56:46;17.00;99.90
12303;DHT22;6214;48.012;7.862;2022-11-15T11:59:49;17.00;99.90
12303;DHT22;6214;48.012;7.862;2022-11-15T12:02:38;17.00;99.90
12303;DHT22;6214;48.012;7.862;2022-11-15T12:08:04;17.20;99.90
12303;DHT22;6214;48.012;7.862;2022-11-15T12:10:35;17.30;99.90
12303;DHT22;6214;48.012;7.862;2022-11-15T12:15:38;17.00;99.90
12303;DHT22;6214;48.012;7.862;2022-11-15T12:18:11;17.00;99.90
12303;DHT22;6214;48.012;7.862;2022-11-15T12:20:50;16.90;99.90
12303;DHT22;6214;48.012;7.862;2022-11-15T12:23:47;16.90;99.90
12303;DHT22;6214;48.012;7.862;2022-11-15T12:26:41;17.00;99.90
12303;DHT22;6214;48.012;7.862;2022-11-15T12:29:29;17.10;99.90
12303;DHT22;6214;48.012;7.862;2022-11-15T12:31:58;17.10;99.90
12303;DHT22;6214;48.012;7.862;2022-11-15T12:34:44;17.10;99.90
12303;DHT22;6214;48.012;7.862;2022-11-15T12:40:20;17.00;99.90
12303;DHT22;6214;48.012;7.862;2022-11-15T12:45:38;16.90;99.90
12303;DHT22;6214;48.012;7.862;2022-11-15T12:58:56;16.90;99.90
12303;DHT22;6214;48.012;7.862;2022-11-15T13:06:59;16.80;99.90
12303;DHT22;6214;48.012;7.862;2022-11-15T13:17:32;16.70;99.90
12303;DHT22;6214;48.012;7.862;2022-11-15T13:20:02;16.70;99.90
12303;DHT22;6214;48.012;7.862;2022-11-15T13:22:49;16.70;99.90
12303;DHT22;6214;48.012;7.862;2022-11-15T13:28:33;16.70;99.90
12303;DHT22;6214;48.012;7.862;2022-11-15T13:31:37;16.60;99.90
12303;DHT22;6214;48.012;7.862;2022-11-15T13:34:31;16.60;99.90
12303;DHT22;6214;48.012;7.862;2022-11-15T13:39:48;16.60;99.90
12303;DHT22;6214;48.012;7.862;2022-11-15T13:42:17;16.40;99.90
12303;DHT22;6214;48.012;7.862;2022-11-15T13:45:03;16.40;99.90
12303;DHT22;6214;48.012;7.862;2022-11-15T13:47:30;16.40;99.90
12303;DHT22;6214;48.012;7.862;2022-11-15T13:49:59;16.50;99.90
12303;DHT22;6214;48.012;7.862;2022-11-15T13:52:34;16.60;99.90
12303;DHT22;6214;48.012;7.862;2022-11-15T13:55:26;16.70;99.90
12303;DHT22;6214;48.012;7.862;2022-11-15T13:58:01;16.90;99.90
12303;DHT22;6214;48.012;7.862;2022-11-15T14:00:42;17.00;99.90
12303;DHT22;6214;48.012;7.862;2022-11-15T14:03:26;17.10;99.90
12303;DHT22;6214;48.012;7.862;2022-11-15T14:06:10;17.10;99.90
12303;DHT22;6214;48.012;7.862;2022-11-15T14:11:27;17.10;99.90
12303;DHT22;6214;48.012;7.862;2022-11-15T14:16:38;17.10;99.90
12303;DHT22;6214;48.012;7.862;2022-11-15T14:19:08;17.20;99.90
12303;DHT22;6214;48.012;7.862;2022-11-15T14:21:36;17.10;99.90
12303;DHT22;6214;48.012;7.862;2022-11-15T14:24:33;17.20;99.90
12303;DHT22;6214;48.012;7.862;2022-11-15T14:27:19;17.20;99.90
12303;DHT22;6214;48.012;7.862;2022-11-15T14:29:48;17.30;99.90
12303;DHT22;6214;48.012;7.862;2022-11-15T14:32:17;17.40;99.90
12303;DHT22;6214;48.012;7.862;2022-11-15T14:34:46;17.40;99.90
12303;DHT22;6214;48.012;7.862;2022-11-15T14:37:33;17.30;99.90
12303;DHT22;6214;48.012;7.862;2022-11-15T14:40:04;17.40;99.90
12303;DHT22;6214;48.012;7.862;2022-11-15T14:42:32;17.30;99.90
12303;DHT22;6214;48.012;7.862;2022-11-15T14:44:59;17.30;99.90
12303;DHT22;6214;48.012;7.862;2022-11-15T14:47:26;17.30;99.90
12303;DHT22;6214;48.012;7.862;2022-11-15T14:49:53;17.20;99.90
12303;DHT22;6214;48.012;7.862;2022-11-15T14:52:28;17.30;99.90
12303;DHT22;6214;48.012;7.862;2022-11-15T14:54:59;17.30;99.90
12303;DHT22;6214;48.012;7.862;2022-11-15T14:57:28;17.30;99.90
12303;DHT22;6214;48.012;7.862;2022-11-15T14:59:55;17.30;99.90
12303;DHT22;6214;48.012;7.862;2022-11-15T15:02:24;17.40;99.90
12303;DHT22;6214;48.012;7.862;2022-11-15T15:04:51;17.40;99.90
12303;DHT22;6214;48.012;7.862;2022-11-15T15:07:18;17.50;99.90
12303;DHT22;6214;48.012;7.862;2022-11-15T15:09:46;17.50;99.90
12303;DHT22;6214;48.012;7.862;2022-11-15T15:12:18;17.50;99.90
12303;DHT22;6214;48.012;7.862;2022-11-15T15:14:47;17.30;99.90
12303;DHT22;6214;48.012;7.862;2022-11-15T15:17:14;17.20;99.90
12303;DHT22;6214;48.012;7.862;2022-11-15T15:19:42;17.20;99.90
12303;DHT22;6214;48.012;7.862;2022-11-15T15:22:15;17.30;99.90
12303;DHT22;6214;48.012;7.862;2022-11-15T15:24:43;17.30;99.90
12303;DHT22;6214;48.012;7.862;2022-11-15T15:27:11;17.40;99.90
12303;DHT22;6214;48.012;7.862;2022-11-15T15:29:38;17.20;99.90
12303;DHT22;6214;48.012;7.862;2022-11-15T15:32:05;16.80;99.90
12303;DHT22;6214;48.012;7.862;2022-11-15T15:34:32;16.70;99.90
12303;DHT22;6214;48.012;7.862;2022-11-15T15:39:50;16.30;99.90
12303;DHT22;6214;48.012;7.862;2022-11-15T15:42:18;16.20;99.90
12303;DHT22;6214;48.012;7.862;2022-11-15T15:44:47;16.20;99.90
12303;DHT22;6214;48.012;7.862;2022-11-15T15:47:17;16.00;99.90
12303;DHT22;6214;48.012;7.862;2022-11-15T15:49:45;15.80;99.90
12303;DHT22;6214;48.012;7.862;2022-11-15T15:52:12;15.70;99.90
12303;DHT22;6214;48.012;7.862;2022-11-15T15:54:39;15.60;99.90
12303;DHT22;6214;48.012;7.862;2022-11-15T15:57:07;15.50;99.90
12303;DHT22;6214;48.012;7.862;2022-11-15T15:59:35;15.40;99.90
12303;DHT22;6214;48.012;7.862;2022-11-15T16:02:01;15.20;99.90
12303;DHT22;6214;48.012;7.862;2022-11-15T16:04:28;15.30;99.90
12303;DHT22;6214;48.012;7.862;2022-11-15T16:06:59;15.40;99.90
12303;DHT22;6214;48.012;7.862;2022-11-15T16:09:26;15.30;99.90
12303;DHT22;6214;48.012;7.862;2022-11-15T16:12:12;15.00;99.90
12303;DHT22;6214;48.012;7.862;2022-11-15T16:14:39;15.00;99.90
12303;DHT22;6214;48.012;7.862;2022-11-15T16:17:08;15.10;99.90
12303;DHT22;6214;48.012;7.862;2022-11-15T16:19:35;14.90;99.90
12303;DHT22;6214;48.012;7.862;2022-11-15T16:22:02;14.90;99.90
12303;DHT22;6214;48.012;7.862;2022-11-15T16:24:29;14.80;99.90
12303;DHT22;6214;48.012;7.862;2022-11-15T16:26:56;14.60;99.90
12303;DHT22;6214;48.012;7.862;2022-11-15T16:29:23;14.80;99.90
12303;DHT22;6214;48.012;7.862;2022-11-15T16:31:49;14.90;99.90
12303;DHT22;6214;48.012;7.862;2022-11-15T16:34:16;15.10;99.90
12303;DHT22;6214;48.012;7.862;2022-11-15T16:36:44;15.10;99.90
12303;DHT22;6214;48.012;7.862;2022-11-15T16:39:11;15.10;99.90
12303;DHT22;6214;48.012;7.862;2022-11-15T16:41:43;15.10;99.90
12303;DHT22;6214;48.012;7.862;2022-11-15T16:44:13;15.10;99.90
12303;DHT22;6214;48.012;7.862;2022-11-15T16:46:43;15.10;99.90
12303;DHT22;6214;48.012;7.862;2022-11-15T16:49:13;15.00;99.90
12303;DHT22;6214;48.012;7.862;2022-11-15T16:51:41;15.10;99.90
12303;DHT22;6214;48.012;7.862;2022-11-15T16:54:10;15.10;99.90
12303;DHT22;6214;48.012;7.862;2022-11-15T16:56:37;15.10;99.90
12303;DHT22;6214;48.012;7.862;2022-11-15T16:59:05;14.80;99.90
12303;DHT22;6214;48.012;7.862;2022-11-15T17:01:34;14.90;99.90
12303;DHT22;6214;48.012;7.862;2022-11-15T17:04:02;14.90;99.90
12303;DHT22;6214;48.012;7.862;2022-11-15T17:06:39;14.90;99.90
12303;DHT22;6214;48.012;7.862;2022-11-15T17:09:11;14.90;99.90
12303;DHT22;6214;48.012;7.862;2022-11-15T17:11:40;14.80;99.90
12303;DHT22;6214;48.012;7.862;2022-11-15T17:14:07;14.80;99.90
12303;DHT22;6214;48.012;7.862;2022-11-15T17:16:34;14.80;99.90
12303;DHT22;6214;48.012;7.862;2022-11-15T17:19:04;14.70;99.90
12303;DHT22;6214;48.012;7.862;2022-11-15T17:21:31;14.70;99.90
12303;DHT22;6214;48.012;7.862;2022-11-15T17:23:59;14.80;99.90
12303;DHT22;6214;48.012;7.862;2022-11-15T17:26:26;14.70;99.90
12303;DHT22;6214;48.012;7.862;2022-11-15T17:28:58;14.70;99.90
12303;DHT22;6214;48.012;7.862;2022-11-15T17:31:27;14.60;99.90
12303;DHT22;6214;48.012;7.862;2022-11-15T17:33:56;14.60;99.90
12303;DHT22;6214;48.012;7.862;2022-11-15T17:36:23;14.40;99.90
12303;DHT22;6214;48.012;7.862;2022-11-15T17:38:49;14.30;99.90
12303;DHT22;6214;48.012;7.862;2022-11-15T17:41:24;14.40;99.90
12303;DHT22;6214;48.012;7.862;2022-11-15T17:43:51;14.30;99.90
12303;DHT22;6214;48.012;7.862;2022-11-15T17:46:19;14.40;99.90
12303;DHT22;6214;48.012;7.862;2022-11-15T17:48:47;14.40;99.90
12303;DHT22;6214;48.012;7.862;2022-11-15T17:51:16;14.30;99.90
12303;DHT22;6214;48.012;7.862;2022-11-15T17:53:45;15.20;99.90
12303;DHT22;6214;48.012;7.862;2022-11-15T17:56:13;14.30;99.90
12303;DHT22;6214;48.012;7.862;2022-11-15T17:58:41;14.20;99.90
12303;DHT22;6214;48.012;7.862;2022-11-15T18:03:45;14.30;99.90
12303;DHT22;6214;48.012;7.862;2022-11-15T18:06:12;14.30;99.90
12303;DHT22;6214;48.012;7.862;2022-11-15T18:08:42;14.20;99.90
12303;DHT22;6214;48.012;7.862;2022-11-15T18:11:28;14.40;99.90
12303;DHT22;6214;48.012;7.862;2022-11-15T18:13:57;14.20;99.90
12303;DHT22;6214;48.012;7.862;2022-11-15T18:16:26;14.30;99.90
12303;DHT22;6214;48.012;7.862;2022-11-15T18:18:54;14.40;99.90